Time;durP1;ratioP1;P1;durP2;ratioP2;P2;SDS_P1;SDS_P2;PMS_P1;PMS_P2;Temp;Humidity;BMP_temperature;BMP_pressure;BME280_temperature;BME280_humidity;BME280_pressure;Samples;Min_cycle;Max_cycle;Signal;HPM_P1;HPM_P2
2023/08/27 00:01:00;;;;;;;17.30;8.40;;;;;;;13.38;100.00;100564.31;4978431;28;20037;-84
2023/08/27 00:03:26;;;;;;;12.77;8.87;;;;;;;13.31;100.00;100558.84;5020959;28;20431;-84
2023/08/27 00:05:51;;;;;;;12.50;8.50;;;;;;;13.28;100.00;100552.03;4985590;28;20036;-84
2023/08/27 00:08:16;;;;;;;9.73;7.83;;;;;;;13.21;100.00;100548.38;4977603;28;20033;-84
2023/08/27 00:10:42;;;;;;;9.00;7.47;;;;;;;13.18;100.00;100548.75;4989049;28;20095;-83
2023/08/27 00:13:07;;;;;;;10.50;8.40;;;;;;;13.14;100.00;100547.47;4980540;28;20087;-84
2023/08/27 00:15:32;;;;;;;8.50;7.50;;;;;;;13.04;100.00;100550.41;5000628;28;20510;-84
2023/08/27 00:17:58;;;;;;;10.53;6.70;;;;;;;13.14;100.00;100552.00;4974084;28;20078;-84
2023/08/27 00:20:23;;;;;;;12.23;7.20;;;;;;;13.16;100.00;100549.94;5013578;28;20116;-84
2023/08/27 00:22:48;;;;;;;9.90;6.57;;;;;;;13.21;100.00;100555.59;4977509;28;20715;-84
2023/08/27 00:25:14;;;;;;;8.90;7.03;;;;;;;13.12;100.00;100537.94;4995381;28;20271;-84
2023/08/27 00:27:40;;;;;;;13.17;7.80;;;;;;;13.23;100.00;100559.75;4977384;28;20033;-84
2023/08/27 00:30:06;;;;;;;8.15;6.45;;;;;;;13.28;100.00;100557.38;4979986;28;20033;-84
2023/08/27 00:32:33;;;;;;;12.27;7.90;;;;;;;13.29;100.00;100545.63;4980896;28;20042;-84
2023/08/27 00:35:00;;;;;;;9.85;7.88;;;;;;;13.26;100.00;100537.09;4991483;28;20148;-85
2023/08/27 00:37:26;;;;;;;8.65;6.65;;;;;;;13.32;100.00;100544.41;5006733;28;20035;-84
2023/08/27 00:39:52;;;;;;;23.13;7.90;;;;;;;13.36;100.00;100551.09;5005100;28;20124;-84
2023/08/27 00:42:18;;;;;;;9.48;7.35;;;;;;;13.36;100.00;100540.34;4996548;28;20879;-84
2023/08/27 00:44:43;;;;;;;13.52;9.15;;;;;;;13.38;100.00;100538.31;4998979;28;20029;-84
2023/08/27 00:47:10;;;;;;;10.83;7.50;;;;;;;13.42;100.00;100536.94;4993502;28;20101;-84
2023/08/27 00:49:37;;;;;;;16.02;8.55;;;;;;;13.44;100.00;100548.31;4993397;28;20034;-85
2023/08/27 00:52:04;;;;;;;7.63;6.10;;;;;;;13.44;100.00;100553.69;5003178;28;20092;-84
2023/08/27 00:54:31;;;;;;;9.32;7.03;;;;;;;13.40;100.00;100541.66;4999131;28;20034;-83
2023/08/27 00:56:57;;;;;;;11.52;8.60;;;;;;;13.43;100.00;100540.44;5000188;28;20034;-84
2023/08/27 00:59:22;;;;;;;8.98;6.53;;;;;;;13.44;100.00;100539.44;4975894;28;20026;-84
2023/08/27 01:01:47;;;;;;;12.67;8.20;;;;;;;13.43;100.00;100525.19;4980120;28;20042;-84
2023/08/27 01:04:13;;;;;;;;;;;;;;;13.45;100.00;100536.56;5000199;28;20029;-84
2023/08/27 01:06:39;;;;;;;8.85;5.93;;;;;;;13.49;100.00;100537.03;4975911;28;20722;-84
2023/08/27 01:09:36;;;;;;;8.13;7.03;;;;;;;13.49;100.00;100524.44;4991761;28;20045;-84
2023/08/27 01:12:09;;;;;;;10.98;7.00;;;;;;;13.47;100.00;100521.13;4975219;28;20033;-84
2023/08/27 01:14:36;;;;;;;11.80;8.48;;;;;;;13.50;100.00;100523.41;4975530;28;20033;-84
2023/08/27 01:17:03;;;;;;;8.15;7.18;;;;;;;13.57;100.00;100530.72;4975542;28;20499;-84
2023/08/27 01:19:29;;;;;;;10.32;6.95;;;;;;;13.57;100.00;100522.69;4975858;28;20026;-84
2023/08/27 01:21:55;;;;;;;14.32;7.80;;;;;;;13.64;100.00;100523.59;4991682;28;20064;-84
2023/08/27 01:24:21;;;;;;;10.00;6.88;;;;;;;13.62;100.00;100496.13;4975312;28;20057;-83
2023/08/27 01:26:50;;;;;;;13.00;8.13;;;;;;;13.62;100.00;100491.59;4992058;28;20034;-84
2023/08/27 01:29:40;;;;;;;11.43;7.05;;;;;;;13.59;100.00;100502.69;4998954;28;20034;-84
2023/08/27 01:32:19;;;;;;;9.95;6.85;;;;;;;13.52;100.00;100499.94;4991048;28;20034;-83
2023/08/27 01:34:46;;;;;;;19.45;7.20;;;;;;;13.52;100.00;100507.97;4991687;28;20036;-83
2023/08/27 01:37:13;;;;;;;10.70;6.68;;;;;;;13.52;100.00;100507.16;4975355;28;20022;-83
2023/08/27 01:39:38;;;;;;;8.48;5.82;;;;;;;13.55;100.00;100522.84;4975507;28;20069;-84
2023/08/27 01:42:04;;;;;;;9.98;7.85;;;;;;;13.55;100.00;100536.28;4991083;28;20069;-84
2023/08/27 01:44:30;;;;;;;14.73;8.30;;;;;;;13.62;100.00;100544.41;4991945;28;20026;-84
2023/08/27 01:46:56;;;;;;;11.60;7.45;;;;;;;13.67;100.00;100553.56;4995300;28;20041;-84
2023/08/27 01:49:21;;;;;;;11.77;8.63;;;;;;;13.73;100.00;100568.06;5009234;28;20388;-83
2023/08/27 01:51:46;;;;;;;13.23;10.43;;;;;;;13.61;100.00;100548.13;4986526;28;20396;-84
2023/08/27 01:54:48;;;;;;;13.88;9.18;;;;;;;13.69;100.00;100545.31;4941452;28;20147;-83
2023/08/27 01:57:38;;;;;;;15.40;9.73;;;;;;;13.64;100.00;100545.88;4981014;22;20042;-74
2023/08/27 02:00:08;;;;;;;14.43;9.98;;;;;;;13.63;100.00;100552.28;4971656;28;20035;-74
2023/08/27 02:02:40;;;;;;;20.38;11.13;;;;;;;13.61;100.00;100562.34;4983762;28;20145;-74
2023/08/27 02:05:06;;;;;;;17.80;10.63;;;;;;;13.60;100.00;100549.13;4972552;28;20121;-73
2023/08/27 02:07:38;;;;;;;13.15;9.38;;;;;;;13.72;100.00;100550.31;4983636;28;20026;-74
2023/08/27 02:10:05;;;;;;;12.27;8.00;;;;;;;13.82;100.00;100550.84;4971610;28;20370;-74
2023/08/27 02:12:31;;;;;;;15.45;10.70;;;;;;;13.83;100.00;100551.69;4978915;28;20477;-74
2023/08/27 02:14:57;;;;;;;12.80;9.45;;;;;;;13.82;100.00;100558.91;4975765;28;20096;-74
2023/08/27 02:17:22;;;;;;;12.00;9.77;;;;;;;13.77;100.00;100537.19;4987485;28;20065;-74
2023/08/27 02:19:47;;;;;;;14.00;8.57;;;;;;;13.80;100.00;100542.16;4965209;28;20039;-74
2023/08/27 02:22:19;;;;;;;16.77;10.45;;;;;;;13.79;100.00;100519.03;4985673;28;20408;-74
2023/08/27 02:24:44;;;;;;;15.70;11.73;;;;;;;13.76;100.00;100508.66;4986773;28;20493;-74
2023/08/27 02:27:11;;;;;;;18.27;12.48;;;;;;;13.75;100.00;100517.75;4962654;28;20129;-74
2023/08/27 02:29:37;;;;;;;16.47;9.57;;;;;;;13.76;100.00;100508.66;4999252;28;20121;-75
2023/08/27 02:32:02;;;;;;;12.13;9.00;;;;;;;13.76;100.00;100524.75;5001067;28;20030;-74
2023/08/27 02:34:28;;;;;;;13.55;9.52;;;;;;;13.71;100.00;100506.53;4987273;28;20520;-74
2023/08/27 02:36:53;;;;;;;10.18;7.97;;;;;;;13.77;100.00;100504.97;4970761;28;20096;-74
2023/08/27 02:39:19;;;;;;;11.50;9.27;;;;;;;13.80;100.00;100488.50;4985561;28;20030;-74
2023/08/27 02:41:44;;;;;;;14.70;9.60;;;;;;;13.80;100.00;100469.72;4980967;28;20410;-74
2023/08/27 02:44:09;;;;;;;13.53;10.57;;;;;;;13.78;100.00;100474.44;4981346;28;20040;-74
2023/08/27 02:46:35;;;;;;;14.68;10.57;;;;;;;13.79;100.00;100468.06;4986587;28;20121;-74
2023/08/27 02:49:01;;;;;;;13.57;9.57;;;;;;;13.74;100.00;100451.69;4986234;28;20125;-74
2023/08/27 02:51:26;;;;;;;16.97;11.20;;;;;;;13.66;100.00;100446.44;4985472;28;20057;-74
2023/08/27 02:53:51;;;;;;;13.33;9.37;;;;;;;13.64;100.00;100445.81;4981194;28;20097;-74
2023/08/27 02:56:18;;;;;;;11.05;7.95;;;;;;;13.59;100.00;100442.88;4979185;28;20080;-74
2023/08/27 02:58:44;;;;;;;12.68;8.75;;;;;;;13.56;100.00;100444.06;4980965;28;20490;-74
2023/08/27 03:01:17;;;;;;;12.68;8.45;;;;;;;13.54;100.00;100445.28;4973251;28;20041;-74
2023/08/27 03:03:42;;;;;;;12.02;8.48;;;;;;;13.49;100.00;100465.44;4983135;28;20041;-74
2023/08/27 03:06:07;;;;;;;13.60;9.67;;;;;;;13.39;100.00;100474.78;4968402;28;20027;-74
2023/08/27 03:08:33;;;;;;;15.00;10.60;;;;;;;13.40;100.00;100484.53;4980887;28;20066;-73
2023/08/27 03:10:58;;;;;;;16.10;9.57;;;;;;;13.43;100.00;100486.81;4986112;28;20370;-74
2023/08/27 03:13:23;;;;;;;12.10;8.43;;;;;;;13.48;100.00;100490.59;4978626;28;20034;-74
2023/08/27 03:15:49;;;;;;;18.37;9.07;;;;;;;13.49;100.00;100489.59;4980863;28;20038;-74
2023/08/27 03:18:14;;;;;;;14.07;9.67;;;;;;;13.49;100.00;100492.28;4983316;28;20037;-74
2023/08/27 03:20:42;;;;;;;14.45;10.25;;;;;;;13.47;100.00;100480.06;5000959;28;20046;-74
2023/08/27 03:23:08;;;;;;;11.95;9.13;;;;;;;13.41;100.00;100468.22;4982530;28;20045;-74
2023/08/27 03:25:33;;;;;;;13.90;10.57;;;;;;;13.34;100.00;100469.16;4985886;28;20023;-74
2023/08/27 03:27:59;;;;;;;14.93;9.03;;;;;;;13.29;100.00;100456.31;4978296;28;20031;-74
2023/08/27 03:30:24;;;;;;;15.98;11.27;;;;;;;13.18;100.00;100448.72;4951004;28;20027;-74
2023/08/27 03:32:51;;;;;;;18.23;10.27;;;;;;;13.14;100.00;100445.59;4967899;28;20529;-74
2023/08/27 03:35:17;;;;;;;12.60;10.60;;;;;;;13.07;100.00;100445.50;4978142;28;20046;-74
2023/08/27 03:37:42;;;;;;;12.35;9.23;;;;;;;12.98;100.00;100433.22;4986903;28;20593;-74
2023/08/27 03:40:08;;;;;;;18.20;9.57;;;;;;;12.98;100.00;100443.94;4974638;28;20477;-74
2023/08/27 03:42:34;;;;;;;12.90;9.70;;;;;;;12.94;100.00;100450.69;4999070;28;20081;-74
2023/08/27 03:45:00;;;;;;;12.82;9.07;;;;;;;12.89;100.00;100448.56;4981403;28;20037;-74
2023/08/27 03:47:26;;;;;;;15.23;10.90;;;;;;;12.83;100.00;100437.75;4991321;28;20097;-73
2023/08/27 03:49:52;;;;;;;13.77;10.45;;;;;;;12.74;100.00;100422.81;4981094;28;20038;-74
2023/08/27 03:52:21;;;;;;;15.57;9.17;;;;;;;12.65;100.00;100417.53;4991726;28;20026;-73
2023/08/27 03:54:46;;;;;;;12.95;9.32;;;;;;;12.63;100.00;100413.38;4979836;28;20038;-74
2023/08/27 03:57:11;;;;;;;12.60;8.93;;;;;;;12.58;100.00;100413.91;4977404;28;20038;-74
2023/08/27 03:59:37;;;;;;;12.87;9.20;;;;;;;12.56;100.00;100407.09;4993974;28;20022;-74
2023/08/27 04:02:02;;;;;;;12.83;7.77;;;;;;;12.53;100.00;100410.97;4985409;28;20042;-74
2023/08/27 04:04:28;;;;;;;12.80;8.88;;;;;;;12.51;100.00;100415.66;4996419;28;20030;-74
2023/08/27 04:06:55;;;;;;;14.30;9.25;;;;;;;12.44;100.00;100412.06;5005291;28;20046;-74
2023/08/27 04:09:23;;;;;;;13.30;8.68;;;;;;;12.44;100.00;100426.28;4972448;28;20073;-74
2023/08/27 04:11:49;;;;;;;14.77;8.65;;;;;;;12.44;100.00;100436.97;4990715;28;20028;-74
2023/08/27 04:14:14;;;;;;;16.53;9.50;;;;;;;12.46;100.00;100440.31;4984699;28;20038;-74
2023/08/27 04:16:39;;;;;;;17.70;11.03;;;;;;;12.51;100.00;100438.94;4969295;28;20103;-74
2023/08/27 04:19:05;;;;;;;11.53;9.67;;;;;;;12.48;100.00;100439.28;4961148;28;20091;-74
2023/08/27 04:21:30;;;;;;;15.90;11.07;;;;;;;12.54;100.00;100435.88;4988775;28;20029;-74
2023/08/27 04:23:55;;;;;;;12.33;9.87;;;;;;;12.53;100.00;100437.75;4958911;28;20037;-73
2023/08/27 04:26:21;;;;;;;21.00;11.43;;;;;;;12.51;100.00;100431.75;5000190;28;20038;-74
2023/08/27 04:28:47;;;;;;;12.60;8.82;;;;;;;12.48;100.00;100420.53;4975314;28;20113;-73
2023/08/27 04:31:16;;;;;;;15.30;11.30;;;;;;;12.45;100.00;100419.94;4972697;28;20034;-73
2023/08/27 04:33:41;;;;;;;15.20;11.70;;;;;;;12.68;100.00;100435.91;5006142;28;20052;-74
2023/08/27 04:36:06;;;;;;;29.70;11.00;;;;;;;12.80;100.00;100432.75;4971378;28;20501;-74
2023/08/27 04:38:32;;;;;;;16.73;11.17;;;;;;;12.76;100.00;100434.13;4973290;28;20085;-74
2023/08/27 04:40:57;;;;;;;12.97;10.17;;;;;;;12.74;100.00;100422.81;4973512;28;20046;-74
2023/08/27 04:43:24;;;;;;;12.73;10.20;;;;;;;12.63;100.00;100413.38;4983558;28;20109;-74
2023/08/27 04:45:49;;;;;;;14.73;9.53;;;;;;;12.65;100.00;100414.03;4979050;28;20498;-74
2023/08/27 04:48:15;;;;;;;11.85;8.10;;;;;;;12.66;100.00;100413.81;4993577;28;20035;-74
2023/08/27 04:50:45;;;;;;;14.20;8.83;;;;;;;12.65;100.00;100404.13;4995394;28;20033;-75
2023/08/27 04:53:11;;;;;;;16.10;11.25;;;;;;;12.73;100.00;100421.13;4970812;28;20084;-74
2023/08/27 04:55:37;;;;;;;19.83;11.35;;;;;;;12.67;100.00;100428.88;4993884;28;20026;-74
2023/08/27 04:58:04;;;;;;;14.82;10.23;;;;;;;12.74;100.00;100446.91;5000436;28;20036;-74
2023/08/27 05:00:30;;;;;;;11.93;8.75;;;;;;;12.74;100.00;100438.88;4997249;28;20547;-74
2023/08/27 05:02:55;;;;;;;13.23;9.13;;;;;;;12.82;100.00;100449.50;4996167;28;20044;-73
2023/08/27 05:05:21;;;;;;;12.57;9.13;;;;;;;12.89;100.00;100453.09;5004157;28;20026;-74
2023/08/27 05:07:47;;;;;;;12.00;10.07;;;;;;;12.98;100.00;100457.34;4980232;28;20036;-74
2023/08/27 05:10:12;;;;;;;15.80;11.38;;;;;;;13.07;100.00;100463.44;4987151;28;20038;-74
2023/08/27 05:12:38;;;;;;;14.60;10.75;;;;;;;13.13;100.00;100461.88;4984485;28;20042;-74
2023/08/27 05:15:06;;;;;;;13.75;10.40;;;;;;;13.14;100.00;100461.69;4992460;28;20037;-74
2023/08/27 05:17:32;;;;;;;16.50;10.93;;;;;;;13.16;100.00;100458.78;4976872;28;20493;-74
2023/08/27 05:19:57;;;;;;;12.07;9.38;;;;;;;13.23;100.00;100449.84;4984896;28;20180;-74
2023/08/27 05:22:23;;;;;;;11.13;8.53;;;;;;;13.25;100.00;100446.97;4984235;28;20052;-74
2023/08/27 05:24:48;;;;;;;11.07;8.03;;;;;;;13.45;100.00;100458.78;4998096;28;20026;-74
2023/08/27 05:27:13;;;;;;;10.33;8.40;;;;;;;13.53;100.00;100460.53;5003009;28;20428;-74
2023/08/27 05:29:39;;;;;;;13.43;8.90;;;;;;;13.59;100.00;100461.63;4984919;28;20116;-74
2023/08/27 05:32:05;;;;;;;13.50;9.40;;;;;;;13.65;100.00;100458.19;4991942;28;20029;-74
2023/08/27 05:34:31;;;;;;;9.65;7.20;;;;;;;13.78;100.00;100457.50;5003732;28;20065;-74
2023/08/27 05:36:57;;;;;;;10.18;7.22;;;;;;;14.27;100.00;100462.09;4977867;28;20038;-74
2023/08/27 05:39:22;;;;;;;11.05;7.05;;;;;;;14.21;100.00;100426.13;4992168;28;20037;-74
2023/08/27 05:41:47;;;;;;;10.37;6.47;;;;;;;14.19;100.00;100419.28;5015523;22;20644;-72
2023/08/27 05:44:13;;;;;;;9.50;6.77;;;;;;;14.23;100.00;100415.19;5013500;28;20048;-72
2023/08/27 05:46:39;;;;;;;7.90;6.80;;;;;;;14.29;100.00;100407.19;5008639;28;20543;-72
2023/08/27 05:49:05;;;;;;;8.45;6.95;;;;;;;14.38;100.00;100413.25;5003183;28;20121;-73
2023/08/27 05:51:31;;;;;;;;;;;;;;;14.35;100.00;100411.78;5022754;28;20025;-73
2023/08/27 05:53:56;;;;;;;7.88;5.88;;;;;;;14.26;100.00;100402.22;4984200;28;19983;-72
2023/08/27 05:56:22;;;;;;;12.03;6.00;;;;;;;14.29;100.00;100400.97;4997158;28;20034;-73
2023/08/27 05:58:48;;;;;;;8.55;6.18;;;;;;;14.32;100.00;100396.03;5013494;28;20292;-73
2023/08/27 06:01:13;;;;;;;8.63;6.87;;;;;;;14.53;100.00;100399.69;4980616;28;20037;-72
2023/08/27 06:03:39;;;;;;;12.07;5.80;;;;;;;14.86;100.00;100417.91;4996425;28;20726;-72
2023/08/27 06:06:04;;;;;;;7.83;5.57;;;;;;;15.29;100.00;100397.00;4987408;28;20095;-73
2023/08/27 06:08:29;;;;;;;6.30;5.30;;;;;;;15.28;100.00;100363.06;5021410;28;20022;-73
2023/08/27 06:10:55;;;;;;;7.80;4.30;;;;;;;15.22;100.00;100358.50;4999985;28;20065;-73
2023/08/27 06:13:20;;;;;;;5.37;3.73;;;;;;;15.22;100.00;100363.03;4994423;28;20044;-73
2023/08/27 06:15:45;;;;;;;9.63;4.23;;;;;;;15.28;100.00;100373.00;4999969;28;20033;-72
2023/08/27 06:18:11;;;;;;;9.67;5.33;;;;;;;15.34;100.00;100380.28;5013716;28;20037;-72
2023/08/27 06:20:36;;;;;;;7.90;4.90;;;;;;;15.51;100.00;100394.16;5014687;28;20358;-73
2023/08/27 06:23:04;;;;;;;6.33;5.07;;;;;;;15.22;100.00;100369.28;4994412;28;20033;-72
2023/08/27 06:25:34;;;;;;;8.05;4.50;;;;;;;15.16;100.00;100376.28;4990191;28;20031;-73
2023/08/27 06:28:02;;;;;;;7.50;5.45;;;;;;;15.14;100.00;100377.50;5010611;28;20062;-72
2023/08/27 06:30:28;;;;;;;7.80;5.35;;;;;;;15.33;100.00;100382.09;5007903;28;20038;-73
2023/08/27 06:32:54;;;;;;;6.63;4.87;;;;;;;15.38;100.00;100368.06;4994358;28;20407;-73
2023/08/27 06:35:19;;;;;;;6.55;5.10;;;;;;;15.41;100.00;100376.56;4991050;28;20511;-73
2023/08/27 06:37:45;;;;;;;9.70;4.87;;;;;;;15.56;100.00;100368.28;4995107;28;20033;-73
2023/08/27 06:40:13;;;;;;;6.70;4.78;;;;;;;15.53;100.00;100336.44;4995145;28;20033;-73
2023/08/27 06:42:39;;;;;;;12.02;6.07;;;;;;;15.17;100.00;100293.72;4986030;28;20072;-73
2023/08/27 06:45:07;;;;;;;10.00;6.55;;;;;;;15.54;100.00;100340.75;5016292;28;20022;-72
2023/08/27 06:47:32;;;;;;;9.57;5.70;;;;;;;15.54;100.00;100319.25;5006380;28;20403;-73
2023/08/27 06:49:58;;;;;;;9.40;5.20;;;;;;;15.54;100.00;100305.78;4996385;28;20511;-73
2023/08/27 06:52:24;;;;;;;7.97;5.07;;;;;;;15.46;100.00;100289.88;5009058;28;20057;-73
2023/08/27 06:54:49;;;;;;;11.07;5.93;;;;;;;16.01;100.00;100281.59;4978362;28;20144;-73
2023/08/27 06:57:15;;;;;;;6.35;5.15;;;;;;;15.61;100.00;100182.84;4978831;28;20128;-73
2023/08/27 06:59:41;;;;;;;10.85;4.55;;;;;;;15.77;100.00;100188.88;4998573;28;20041;-73
2023/08/27 07:02:09;;;;;;;8.40;5.10;;;;;;;16.02;100.00;100162.91;4990259;28;20029;-73
2023/08/27 07:04:34;;;;;;;5.72;4.28;;;;;;;16.56;100.00;100200.41;5006389;28;20535;-73
2023/08/27 07:07:00;;;;;;;7.20;4.40;;;;;;;16.82;100.00;100178.72;4996322;28;20157;-73
2023/08/27 07:09:26;;;;;;;6.57;4.10;;;;;;;16.53;100.00;100122.69;4987756;28;20030;-73
2023/08/27 07:11:52;;;;;;;5.70;4.10;;;;;;;16.48;100.00;100133.28;4986340;28;20181;-73
2023/08/27 07:14:17;;;;;;;6.15;5.07;;;;;;;16.84;100.00;100157.75;4974053;28;20061;-73
2023/08/27 07:16:44;;;;;;;6.07;5.03;;;;;;;16.52;100.00;100059.06;4998797;28;20111;-72
2023/08/27 07:19:09;;;;;;;;;;;;;;;15.82;100.00;100092.16;4985443;28;20057;-73
2023/08/27 07:21:34;;;;;;;7.60;4.80;;;;;;;15.66;100.00;100176.03;5009560;28;19917;-73
2023/08/27 07:24:00;;;;;;;5.73;3.87;;;;;;;15.82;100.00;100269.81;4981732;28;20051;-73
2023/08/27 07:26:26;;;;;;;6.32;3.80;;;;;;;16.76;100.00;100219.16;5023526;28;20057;-73
2023/08/27 07:28:52;;;;;;;6.68;3.85;;;;;;;16.35;100.00;100051.50;4996806;28;20037;-73
2023/08/27 07:31:17;;;;;;;4.97;3.30;;;;;;;17.35;100.00;100142.44;4989104;28;20034;-73
2023/08/27 07:33:43;;;;;;;10.57;3.57;;;;;;;18.33;100.00;99994.81;4999686;28;20026;-73
2023/08/27 07:36:08;;;;;;;4.23;3.50;;;;;;;18.05;100.00;99823.44;4984988;28;20033;-73
2023/08/27 07:38:40;;;;;;;5.20;3.50;;;;;;;17.96;100.00;99808.63;5009249;28;20025;-73
2023/08/27 07:41:05;;;;;;;6.85;3.92;;;;;;;17.82;100.00;99808.03;5001716;28;20292;-73
2023/08/27 07:43:30;;;;;;;13.43;4.27;;;;;;;18.00;100.00;99830.56;5007968;28;20026;-74
2023/08/27 07:45:56;;;;;;;5.03;4.23;;;;;;;17.64;100.00;99791.88;5003096;28;20052;-74
2023/08/27 07:48:21;;;;;;;7.53;4.23;;;;;;;18.58;100.00;99875.69;5005554;28;20029;-73
2023/08/27 07:50:47;;;;;;;7.28;4.60;;;;;;;18.94;100.00;99685.31;5001614;28;20029;-74
2023/08/27 07:53:13;;;;;;;6.27;4.40;;;;;;;18.80;100.00;99589.34;5003831;28;20562;-73
2023/08/27 07:55:39;;;;;;;6.45;4.00;;;;;;;17.83;100.00;99590.97;4989050;28;20532;-73
2023/08/27 07:58:05;;;;;;;6.93;3.47;;;;;;;18.12;100.00;99615.31;4988641;28;20030;-73
2023/08/27 08:00:30;;;;;;;6.17;3.47;;;;;;;18.52;100.00;99519.91;4995614;28;20129;-74
2023/08/27 08:02:57;;;;;;;4.57;2.33;;;;;;;19.26;100.00;99562.97;4989308;28;20042;-73
2023/08/27 08:05:22;;;;;;;3.47;2.70;;;;;;;20.21;100.00;99478.88;5004923;28;20034;-73
2023/08/27 08:07:47;;;;;;;3.57;2.63;;;;;;;20.57;100.00;99235.19;5002885;28;20041;-73
2023/08/27 08:10:13;;;;;;;6.33;2.77;;;;;;;20.52;100.00;99091.47;5004496;28;20519;-73
2023/08/27 08:12:39;;;;;;;3.30;2.10;;;;;;;20.83;100.00;99184.56;4992320;28;20060;-72
2023/08/27 08:15:05;;;;;;;7.17;2.50;;;;;;;20.23;100.00;98954.56;4993064;28;20060;-74
2023/08/27 08:17:30;;;;;;;4.43;2.83;;;;;;;19.49;100.00;99014.44;5001420;28;20449;-74
2023/08/27 08:19:55;;;;;;;3.47;2.17;;;;;;;20.07;100.00;99072.09;4988616;28;20068;-73
2023/08/27 08:22:21;;;;;;;4.03;2.53;;;;;;;19.98;100.00;99014.91;4974345;28;20049;-73
2023/08/27 08:24:46;;;;;;;2.50;2.27;;;;;;;20.90;100.00;99082.03;4988404;28;20116;-73
2023/08/27 08:27:12;;;;;;;2.03;1.80;;;;;;;21.84;100.00;99090.59;5003662;28;20034;-73
2023/08/27 08:29:37;;;;;;;2.30;1.90;;;;;;;21.80;100.00;98880.41;4992328;28;20100;-73
2023/08/27 08:32:03;;;;;;;3.93;1.93;;;;;;;20.44;100.00;98851.59;5006059;28;20084;-73
2023/08/27 08:34:28;;;;;;;2.60;1.55;;;;;;;21.70;100.00;99154.75;5021839;28;20401;-73
2023/08/27 08:36:54;;;;;;;4.97;2.05;;;;;;;22.94;100.00;98810.31;5002229;28;20073;-73
2023/08/27 08:39:20;;;;;;;;;;;;;;;23.17;99.72;98706.06;5008446;28;20038;-75
2023/08/27 08:42:02;;;;;;;2.58;1.88;;;;;;;21.90;95.63;98269.16;5020700;28;19913;-73
2023/08/27 08:44:49;;;;;;;4.07;1.67;;;;;;;22.64;99.45;98865.84;5003008;28;20042;-73
2023/08/27 08:47:18;;;;;;;6.18;2.38;;;;;;;22.93;95.02;98638.09;5008802;28;20153;-74
2023/08/27 08:49:45;;;;;;;3.55;2.20;;;;;;;22.88;91.66;98389.81;5008695;28;20029;-74
2023/08/27 08:52:16;;;;;;;3.22;2.17;;;;;;;20.91;98.70;98533.09;4986524;28;20046;-73
2023/08/27 08:54:42;;;;;;;6.45;2.95;;;;;;;21.00;100.00;98767.38;4992334;28;20111;-73
2023/08/27 08:57:13;;;;;;;4.60;2.03;;;;;;;21.50;99.89;98881.41;4983085;28;20030;-73
2023/08/27 08:59:39;;;;;;;5.07;2.17;;;;;;;20.88;100.00;99152.00;4995438;28;20037;-73
2023/08/27 09:02:08;;;;;;;4.63;2.30;;;;;;;21.56;100.00;99140.09;5007072;28;20079;-73
2023/08/27 09:04:34;;;;;;;4.07;2.28;;;;;;;21.30;100.00;99091.25;5011399;28;20052;-73
2023/08/27 09:07:01;;;;;;;2.88;2.00;;;;;;;20.49;100.00;99060.28;4992809;28;20623;-73
2023/08/27 09:09:27;;;;;;;2.40;1.77;;;;;;;20.95;100.00;99071.19;4999645;28;20031;-72
2023/08/27 09:11:54;;;;;;;4.97;2.03;;;;;;;21.81;100.00;99080.31;5009367;28;20506;-72
2023/08/27 09:14:21;;;;;;;2.13;1.65;;;;;;;23.05;100.00;99211.91;5002807;28;20108;-73
2023/08/27 09:16:46;;;;;;;5.10;2.10;;;;;;;23.44;91.73;98631.06;5005225;28;20036;-73
2023/08/27 09:19:12;;;;;;;5.07;1.97;;;;;;;22.87;91.49;98529.63;5005821;28;20046;-73
2023/08/27 09:21:37;;;;;;;2.47;1.90;;;;;;;23.79;89.67;98675.94;4987507;28;20086;-73
2023/08/27 09:24:03;;;;;;;3.78;1.60;;;;;;;24.64;91.29;99005.78;5007593;28;20283;-73
2023/08/27 09:26:28;;;;;;;4.00;2.17;;;;;;;22.98;87.09;98207.31;5011906;28;20544;-73
2023/08/27 09:28:55;;;;;;;4.77;1.70;;;;;;;23.58;88.57;98620.19;4999379;28;20091;-73
2023/08/27 09:31:35;;;;;;;2.30;1.75;;;;;;;23.18;84.80;98208.81;5012012;28;20121;-73
2023/08/27 09:34:01;;;;;;;4.60;1.83;;;;;;;22.36;85.68;98052.03;5015804;28;20033;-72
2023/08/27 09:36:26;;;;;;;2.30;1.90;;;;;;;22.07;87.46;98203.38;5005462;28;20044;-72
2023/08/27 09:38:51;;;;;;;2.43;1.83;;;;;;;23.44;88.16;98756.31;4997825;28;20116;-72
2023/08/27 09:41:17;;;;;;;3.20;1.70;;;;;;;22.27;88.46;98403.34;4991160;28;20080;-72
2023/08/27 09:43:53;;;;;;;3.75;2.05;;;;;;;21.43;93.35;98629.25;5010514;28;20029;-72
2023/08/27 09:46:19;;;;;;;3.80;2.33;;;;;;;22.19;94.95;98971.16;5011727;28;20049;-72
2023/08/27 09:48:56;;;;;;;;;;;;;;;22.14;94.35;98858.66;5017990;28;20033;-73
2023/08/27 09:51:21;;;;;;;3.40;2.60;;;;;;;21.05;100.00;99024.28;5011929;28;19913;-72
2023/08/27 09:53:47;;;;;;;3.50;1.87;;;;;;;21.91;99.08;99112.03;4993049;28;20044;-73
2023/08/27 09:56:12;;;;;;;2.97;2.47;;;;;;;21.26;99.58;98914.59;5007465;28;20104;-74
2023/08/27 09:58:38;;;;;;;3.03;2.37;;;;;;;21.52;99.04;98957.13;4992182;28;20029;-72
2023/08/27 10:01:03;;;;;;;2.45;2.03;;;;;;;21.64;100.00;99134.13;5014163;28;20025;-72
2023/08/27 10:03:29;;;;;;;5.60;2.37;;;;;;;21.53;100.00;99213.97;5025562;28;20069;-73
2023/08/27 10:05:54;;;;;;;2.90;2.20;;;;;;;21.63;100.00;99030.13;5015953;28;20646;-74
2023/08/27 10:08:20;;;;;;;3.58;2.05;;;;;;;21.63;100.00;99127.06;5012338;28;20038;-73
2023/08/27 10:10:46;;;;;;;3.97;1.97;;;;;;;22.02;98.45;98972.34;5019692;28;20431;-72
2023/08/27 10:13:13;;;;;;;2.67;2.40;;;;;;;20.64;100.00;98960.00;5010186;28;20481;-72
2023/08/27 10:15:40;;;;;;;5.40;2.20;;;;;;;20.48;100.00;99175.22;5014180;28;20034;-72
2023/08/27 10:18:11;;;;;;;;;;;;;;;20.69;100.00;99243.09;5006027;28;20049;-73
2023/08/27 10:20:39;;;;;;;2.53;2.15;;;;;;;21.18;100.00;99394.66;5012085;28;19975;-73
2023/08/27 10:23:05;;;;;;;4.20;2.38;;;;;;;20.39;100.00;99158.66;4987970;28;20526;-73
2023/08/27 10:25:32;;;;;;;7.47;2.13;;;;;;;20.74;100.00;99246.63;5014170;28;20034;-73
2023/08/27 10:27:58;;;;;;;5.25;2.28;;;;;;;20.59;100.00;99209.44;5011539;28;20463;-72
2023/08/27 10:30:25;;;;;;;4.00;2.47;;;;;;;20.53;100.00;99196.91;5003562;28;20022;-72
2023/08/27 10:32:50;;;;;;;4.90;2.65;;;;;;;20.57;100.00;99431.19;5001765;28;20500;-73
2023/08/27 10:35:16;;;;;;;3.08;2.63;;;;;;;20.50;100.00;99108.00;5003896;28;20036;-72
2023/08/27 10:37:50;;;;;;;3.65;2.40;;;;;;;20.77;100.00;99368.16;5009080;28;20033;-72
2023/08/27 10:40:16;;;;;;;6.25;2.25;;;;;;;21.13;100.00;99403.59;5002259;28;20041;-72
2023/08/27 10:42:41;;;;;;;4.20;2.38;;;;;;;20.55;100.00;99026.66;5006362;28;20095;-72
2023/08/27 10:45:21;;;;;;;2.60;2.40;;;;;;;21.04;100.00;99226.91;5009115;28;20488;-72
2023/08/27 10:48:11;;;;;;;2.15;2.03;;;;;;;21.54;100.00;99371.19;5006463;28;20033;-72
2023/08/27 10:50:48;;;;;;;5.65;2.47;;;;;;;21.18;100.00;99134.13;5007369;28;20373;-72
2023/08/27 10:53:18;;;;;;;3.25;2.17;;;;;;;20.99;100.00;99329.19;5017258;28;20037;-72
2023/08/27 10:55:50;;;;;;;3.63;2.35;;;;;;;21.10;100.00;99389.75;4988807;28;20408;-73
2023/08/27 10:58:23;;;;;;;4.18;2.30;;;;;;;21.07;100.00;99255.41;5007586;28;20073;-72
2023/08/27 11:01:04;;;;;;;7.55;3.15;;;;;;;20.99;100.00;99343.56;5008865;28;20029;-72
2023/08/27 11:03:51;;;;;;;7.45;2.85;;;;;;;20.98;100.00;99343.84;5003620;28;20026;-71
2023/08/27 11:06:17;;;;;;;5.15;2.75;;;;;;;21.12;100.00;99414.69;4975202;28;20036;-73
2023/08/27 11:08:43;;;;;;;2.95;2.55;;;;;;;20.64;100.00;99319.81;4998775;28;20025;-72
2023/08/27 11:11:15;;;;;;;3.53;3.22;;;;;;;20.20;100.00;99288.34;5008116;28;20060;-72
2023/08/27 11:13:46;;;;;;;7.60;3.13;;;;;;;20.83;100.00;99542.59;4993844;28;20411;-72
2023/08/27 11:16:13;;;;;;;5.10;2.55;;;;;;;20.62;100.00;99365.34;5008336;28;20064;-71